Data for 01/05/2016

Time Sea-Level Adjusted Pressure Absolute Pressure Temperature Relative Humidity Dew Point   
(mb) (inHg) (mb) (inHg) (C) (F) (%) (C) (F)
00:05 1012 29.88 841 24.83 -2.3 27.8 70 -7.1 19.2
00:10 1012 29.88 841 24.83 -2.5 27.5 70 -7.3 18.8
00:15 1012 29.88 841 24.83 -2.5 27.5 70 -7.2 19
00:20 1012 29.88 841 24.83 -2.5 27.5 71 -7.1 19.2
00:25 1012 29.88 841 24.83 -2.5 27.4 70 -7.3 18.9
00:30 1012 29.88 841 24.83 -2.5 27.6 69 -7.5 18.6
00:35 1012 29.88 841 24.83 -2.4 27.7 69 -7.4 18.6
00:40 1012 29.88 841 24.83 -2.5 27.4 71 -7.2 19.1
00:45 1012 29.88 841 24.83 -2.7 27.2 70 -7.5 18.6
00:50 1012 29.88 841 24.83 -2.3 27.8 68 -7.4 18.6
00:55 1012 29.88 841 24.83 -2.3 27.9 66 -7.7 18.1
01:00 1012 29.88 841 24.83 -2.3 27.9 67 -7.7 18.1
01:05 1012 29.88 841 24.83 -2.2 28.1 67 -7.6 18.3
01:10 1012 29.88 841 24.83 -1.8 28.8 63 -7.9 17.7
01:15 1012 29.88 841 24.83 -1.8 28.8 66 -7.3 18.8
01:20 1012 29.88 841 24.83 -1.9 28.5 66 -7.4 18.7
01:25 1012 29.88 841 24.83 -1.6 29.1 65 -7.4 18.6
01:30 1011 29.85 841 24.83 -1.8 28.7 65 -7.6 18.3
01:35 1012 29.88 841 24.83 -1.8 28.8 66 -7.4 18.7
01:40 1011 29.85 841 24.83 -1.7 29 65 -7.5 18.6
01:45 1011 29.85 841 24.83 -1.3 29.7 64 -7.3 18.9
01:50 1012 29.88 841 24.83 -1.6 29.2 65 -7.3 18.9
01:55 1011 29.85 841 24.83 -1.6 29.1 64 -7.6 18.3
02:00 1012 29.88 841 24.83 -1.8 28.8 67 -7.1 19.2
02:05 1011 29.85 841 24.83 -2 28.5 67 -7.2 19
02:10 1011 29.85 841 24.83 -1.9 28.5 66 -7.4 18.7
02:15 1011 29.85 841 24.83 -2 28.3 69 -7 19.5
02:20 1011 29.85 841 24.83 -2.2 28.1 68 -7.3 18.9
02:25 1011 29.85 841 24.83 -2.2 28 69 -7.2 19.1
02:30 1011 29.85 841 24.83 -2.3 27.8 69 -7.2 19
02:35 1011 29.85 841 24.83 -2.2 28 67 -7.5 18.5
02:40 1011 29.85 841 24.83 -2.1 28.3 68 -7.1 19.2
02:45 1011 29.85 841 24.83 -1.8 28.7 64 -7.8 18
02:50 1011 29.85 841 24.83 -1.5 29.4 65 -7.2 19.1
02:55 1011 29.85 841 24.83 -1.4 29.5 64 -7.4 18.7
03:00 1011 29.85 841 24.83 -1.3 29.7 65 -7.1 19.2
03:05 1011 29.85 841 24.83 -1 30.1 64 -7 19.5
03:10 1011 29.85 840 24.81 -1 30.2 63 -7.2 19.1
03:15 1011 29.85 840 24.81 -0.8 30.5 62 -7.1 19.1
03:20 1011 29.85 841 24.83 -1 30.2 62 -7.4 18.8
03:25 1011 29.85 841 24.83 -1.2 29.9 64 -7.1 19.3
03:30 1011 29.85 841 24.83 -1 30.3 64 -7 19.4
03:35 1011 29.85 841 24.83 -0.9 30.5 62 -7.2 19.1
03:40 1011 29.85 841 24.83 -0.9 30.4 63 -7.1 19.3
03:45 1011 29.85 841 24.83 -0.8 30.6 64 -6.8 19.8
03:50 1011 29.85 841 24.83 -0.6 30.9 64 -6.7 20
03:55 1011 29.85 841 24.83 -0.5 31.1 65 -6.3 20.6
04:00 1011 29.85 841 24.83 -0.7 30.8 69 -5.7 21.7
04:05 1011 29.85 841 24.83 -0.3 31.4 67 -5.6 21.9
04:10 1011 29.85 841 24.83 -0.1 31.7 66 -5.8 21.6
04:15 1011 29.85 841 24.83 -0.1 31.9 64 -6.1 21
04:20 1011 29.85 841 24.83 -0.3 31.5 65 -6.1 21
04:25 1011 29.85 841 24.83 -0.4 31.3 66 -6.1 21.1
04:30 1011 29.85 841 24.83 -0.7 30.8 68 -5.9 21.4
04:35 1011 29.85 840 24.81 -0.7 30.7 66 -6.3 20.7
04:40 1011 29.85 840 24.81 -0.7 30.7 68 -5.9 21.4
04:45 1011 29.85 840 24.81 -0.8 30.6 69 -5.9 21.4
04:50 1011 29.85 840 24.81 -1 30.1 69 -6 21.2
04:55 1011 29.85 840 24.81 -1.3 29.6 71 -5.9 21.4
05:00 1011 29.85 840 24.81 -1.5 29.3 73 -5.7 21.7
05:05 1011 29.85 840 24.81 -1.7 29 73 -5.9 21.3
05:10 1011 29.85 840 24.81 -1.6 29.1 73 -5.8 21.5
05:15 1011 29.85 840 24.81 -1.6 29.1 73 -5.9 21.4
05:20 1011 29.85 840 24.81 -1.6 29.1 73 -5.9 21.4
05:25 1011 29.85 840 24.81 -1.7 29 73 -5.8 21.5
05:30 1011 29.85 840 24.81 -1.9 28.7 74 -5.9 21.4
05:35 1011 29.85 840 24.81 -1.9 28.6 73 -6.2 20.9
05:40 1011 29.85 840 24.81 -2.2 28.1 74 -6.1 21
05:45 1011 29.85 840 24.81 -2.4 27.6 75 -6.2 20.8
05:50 1011 29.85 840 24.81 -2.7 27.1 78 -6.1 21.1
05:55 1011 29.85 840 24.81 -2.9 26.8 79 -6.1 21
06:00 1011 29.85 840 24.81 -3 26.6 78 -6.3 20.6
06:05 1011 29.85 840 24.81 -3 26.6 78 -6.3 20.7
06:10 1011 29.85 840 24.81 -3 26.5 79 -6.2 20.8
06:15 1011 29.85 840 24.81 -3 26.5 77 -6.5 20.4
06:20 1011 29.85 840 24.81 -3 26.7 79 -6.2 20.9
06:25 1011 29.85 840 24.81 -2.9 26.8 79 -6.1 21
06:30 1011 29.85 840 24.81 -2.9 26.8 78 -6.3 20.7
06:35 1011 29.85 840 24.81 -2.7 27.2 74 -6.8 19.8
06:40 1011 29.85 840 24.81 -2.1 28.3 70 -6.8 19.7
06:45 1011 29.85 840 24.81 -1.9 28.6 69 -6.8 19.8
06:50 1011 29.85 840 24.81 -2 28.4 70 -6.8 19.8
06:55 1011 29.85 840 24.81 -2 28.4 70 -6.8 19.7
07:00 1011 29.85 840 24.81 -1.9 28.6 68 -6.9 19.5
07:05 1011 29.85 840 24.81 -2.2 28.1 71 -6.8 19.8
07:10 1011 29.85 840 24.81 -2.1 28.3 71 -6.7 19.9
07:15 1011 29.85 840 24.81 -1.6 29.2 68 -6.8 19.8
07:20 1011 29.85 840 24.81 -1.7 29 69 -6.7 19.9
07:25 1011 29.85 840 24.81 -1.9 28.5 69 -7 19.5
07:30 1011 29.85 840 24.81 -1.7 29 68 -6.8 19.7
07:35 1011 29.85 840 24.81 -2.2 28 73 -6.5 20.3
07:40 1011 29.85 840 24.81 -2.4 27.7 70 -7.1 19.2
07:45 1011 29.85 840 24.81 -1.8 28.7 70 -6.5 20.2
07:50 1011 29.85 840 24.81 -2.1 28.2 71 -6.8 19.8
07:55 1011 29.85 840 24.81 -1.7 29 65 -7.4 18.8
08:00 1011 29.85 840 24.81 -1.3 29.6 66 -6.9 19.5
08:05 1011 29.85 840 24.81 -1.2 29.8 66 -6.7 20
08:10 1011 29.85 840 24.81 -1.3 29.6 68 -6.6 20.2
08:15 1011 29.85 840 24.81 -1.7 28.9 70 -6.5 20.2
08:20 1011 29.85 840 24.81 -2.2 28.1 71 -6.7 20
08:25 1011 29.85 840 24.81 -1.8 28.7 70 -6.6 20.1
08:30 1011 29.85 840 24.81 -1.8 28.7 71 -6.4 20.4
08:35 1011 29.85 840 24.81 -2.1 28.2 73 -6.3 20.7
08:40 1011 29.85 840 24.81 -1.6 29 71 -6.2 20.8
08:45 1011 29.85 840 24.81 -1.5 29.4 72 -5.9 21.4
08:50 1011 29.85 840 24.81 -1.4 29.4 72 -5.8 21.6
08:55 1011 29.85 840 24.81 -1.8 28.8 74 -5.8 21.5
09:00 1011 29.85 840 24.81 -1.8 28.7 76 -5.5 22.1
09:05 1011 29.85 840 24.81 -1.4 29.5 76 -5.1 22.8
09:10 1011 29.85 840 24.81 -1.1 30 75 -5 23.1
09:15 1011 29.85 840 24.81 -1 30.2 76 -4.8 23.4
09:20 1011 29.85 840 24.81 -1 30.3 76 -4.7 23.5
09:25 1011 29.85 840 24.81 -1 30.1 76 -4.7 23.5
09:30 1011 29.85 840 24.81 -1.1 30 76 -4.8 23.4
09:35 1011 29.85 840 24.81 -1.3 29.6 76 -5.1 22.9
09:40 1011 29.85 840 24.81 -1.5 29.3 77 -5.1 22.8
09:45 1011 29.85 840 24.81 -1.7 29 77 -5.2 22.6
09:50 1011 29.85 840 24.81 -1.6 29.1 76 -5.3 22.5
09:55 1011 29.85 840 24.81 -1.5 29.2 75 -5.3 22.4
10:00 1011 29.85 840 24.81 -1.5 29.3 77 -5 22.9
10:05 1011 29.85 840 24.81 -1.5 29.4 74 -5.4 22.2
10:10 1011 29.85 840 24.81 -1.5 29.4 74 -5.6 22
10:15 1011 29.85 840 24.81 -1.4 29.5 74 -5.5 22
10:20 1011 29.85 840 24.81 -1.4 29.5 73 -5.6 21.9
10:25 1011 29.85 840 24.81 -1.3 29.7 73 -5.6 22
10:30 1011 29.85 840 24.81 -1.4 29.5 74 -5.4 22.2
10:35 1011 29.85 840 24.81 -1.4 29.5 73 -5.6 21.9
10:40 1011 29.85 840 24.81 -1.1 30 72 -5.6 21.9
10:45 1011 29.85 841 24.83 -0.8 30.5 71 -5.4 22.2
10:50 1011 29.85 841 24.83 -0.9 30.5 71 -5.5 22.2
10:55 1011 29.85 841 24.83 -0.8 30.5 71 -5.5 22.1
11:00 1011 29.85 841 24.83 -0.9 30.4 69 -5.8 21.5
11:05 1011 29.85 841 24.83 -1.1 30.1 70 -5.8 21.5
11:10 1012 29.88 841 24.83 -1.2 29.8 71 -5.8 21.6
11:15 1012 29.88 841 24.83 -1.4 29.4 72 -5.8 21.6
11:20 1012 29.88 841 24.83 -1.2 29.8 71 -5.9 21.3
11:25 1012 29.88 841 24.83 -1.1 30 70 -5.9 21.5
11:30 1012 29.88 841 24.83 -0.8 30.5 70 -5.7 21.7
11:35 1012 29.88 841 24.83 -0.6 30.9 67 -6.1 21.1
11:40 1012 29.88 841 24.83 -0.5 31.2 65 -6.2 20.9
11:45 1012 29.88 841 24.83 -0.2 31.7 62 -6.5 20.3
11:50 1012 29.88 841 24.83 0 32 62 -6.5 20.3
11:55 1012 29.88 841 24.83 0.2 32.4 63 -6.1 21
12:00 1012 29.88 841 24.83 0.5 32.9 60 -6.3 20.7
12:05 1012 29.88 841 24.83 0.6 33.2 62 -5.8 21.6
12:10 1012 29.88 841 24.83 0.5 33 61 -6.1 21
12:15 1012 29.88 841 24.83 0.3 32.5 65 -5.5 22
12:20 1012 29.88 841 24.83 0.4 32.7 66 -5.2 22.6
12:25 1012 29.88 841 24.83 0.4 32.8 65 -5.3 22.4
12:30 1012 29.88 841 24.83 0.8 33.5 63 -5.3 22.4
12:35 1011 29.85 841 24.83 1.1 33.9 64 -5 23
12:40 1011 29.85 841 24.83 1.3 34.3 63 -5 23
12:45 1011 29.85 841 24.83 1.5 34.7 63 -4.7 23.6
12:50 1011 29.85 841 24.83 1.5 34.7 63 -4.7 23.5
12:55 1011 29.85 840 24.81 1.7 35 63 -4.7 23.5
13:00 1011 29.85 840 24.81 2 35.6 62 -4.5 23.8
13:05 1011 29.85 840 24.81 2.3 36.2 62 -4.3 24.3
13:10 1011 29.85 840 24.81 2.4 36.3 61 -4.4 24.1
13:15 1011 29.85 840 24.81 2.5 36.5 61 -4.3 24.2
13:20 1011 29.85 840 24.81 2.8 37.1 59 -4.4 24
13:25 1011 29.85 840 24.81 3.2 37.7 57 -4.4 24
13:30 1011 29.85 840 24.81 3.7 38.6 57 -4 24.8
13:35 1011 29.85 840 24.81 3.7 38.6 57 -4 24.9
13:40 1011 29.85 840 24.81 3.9 39 56 -4.2 24.5
13:45 1011 29.85 840 24.81 4 39.2 57 -3.8 25.2
13:50 1011 29.85 840 24.81 3.6 38.5 58 -3.9 25
13:55 1010 29.83 840 24.81 3.2 37.8 60 -3.8 25.2
14:00 1010 29.83 840 24.81 3 37.4 60 -4.1 24.6
14:05 1010 29.83 840 24.81 3.2 37.7 60 -3.8 25.1
14:10 1010 29.83 840 24.81 2.9 37.2 60 -4 24.7
14:15 1010 29.83 840 24.81 2.8 37.1 62 -3.8 25.1
14:20 1010 29.83 840 24.81 2.8 37 61 -3.9 24.9
14:25 1010 29.83 839 24.78 2.8 37 61 -4 24.9
14:30 1010 29.83 839 24.78 3.6 38.4 58 -4 24.9
14:35 1010 29.83 839 24.78 4.1 39.4 57 -3.8 25.2
14:40 1010 29.83 839 24.78 4 39.2 57 -3.7 25.3
14:45 1010 29.83 839 24.78 3.7 38.7 59 -3.6 25.5
14:50 1010 29.83 839 24.78 3.7 38.6 58 -3.8 25.1
14:55 1010 29.83 839 24.78 3.6 38.6 59 -3.7 25.3
15:00 1010 29.83 839 24.78 3.8 38.8 58 -3.8 25.1
15:05 1010 29.83 839 24.78 4.1 39.3 56 -3.8 25.1
15:10 1010 29.83 839 24.78 4.3 39.7 56 -3.7 25.4
15:15 1010 29.83 839 24.78 4.3 39.7 57 -3.4 25.8
15:20 1010 29.83 839 24.78 4.2 39.5 58 -3.5 25.8
15:25 1010 29.83 839 24.78 4 39.1 59 -3.4 25.9
15:30 1010 29.83 839 24.78 3.6 38.5 61 -3.3 26.1
15:35 1010 29.83 839 24.78 3.5 38.3 61 -3.4 25.9
15:40 1010 29.83 839 24.78 3.5 38.3 61 -3.3 26.1
15:45 1010 29.83 839 24.78 3.4 38 61 -3.4 25.9
15:50 1010 29.83 839 24.78 3.2 37.8 61 -3.5 25.8
15:55 1010 29.83 840 24.81 2.8 37.1 63 -3.5 25.7
16:00 1010 29.83 840 24.81 2.7 36.9 64 -3.5 25.7
16:05 1010 29.83 840 24.81 2.5 36.6 65 -3.5 25.7
16:10 1010 29.83 840 24.81 2.4 36.3 65 -3.6 25.5
16:15 1010 29.83 840 24.81 2.2 35.9 66 -3.6 25.6
16:20 1010 29.83 840 24.81 2.1 35.8 66 -3.6 25.6
16:25 1010 29.83 840 24.81 2 35.5 67 -3.6 25.5
16:30 1010 29.83 840 24.81 1.8 35.3 67 -3.6 25.5
16:35 1010 29.83 839 24.78 2 35.5 67 -3.5 25.8
16:40 1010 29.83 840 24.81 2 35.6 68 -3.4 25.9
16:45 1010 29.83 840 24.81 1.9 35.3 68 -3.4 25.8
16:50 1010 29.83 840 24.81 1.8 35.2 68 -3.5 25.7
16:55 1010 29.83 840 24.81 1.7 35 69 -3.4 25.8
17:00 1010 29.83 840 24.81 1.6 34.8 69 -3.5 25.7
17:05 1010 29.83 840 24.81 1.4 34.6 70 -3.4 25.8
17:10 1010 29.83 840 24.81 1.3 34.3 71 -3.4 25.9
17:15 1010 29.83 840 24.81 1.2 34.1 71 -3.5 25.8
17:20 1010 29.83 840 24.81 1 33.9 72 -3.5 25.6
17:25 1010 29.83 840 24.81 1 33.7 72 -3.5 25.7
17:30 1010 29.83 840 24.81 0.9 33.6 72 -3.6 25.6
17:35 1010 29.83 840 24.81 0.8 33.4 73 -3.6 25.6
17:40 1010 29.83 840 24.81 0.6 33.2 73 -3.7 25.4
17:45 1010 29.83 840 24.81 0.5 32.8 73 -3.7 25.3
17:50 1010 29.83 839 24.78 0.2 32.4 74 -3.8 25.1
17:55 1010 29.83 839 24.78 0 32 76 -3.8 25.2
18:00 1010 29.83 839 24.78 -0.1 31.9 76 -3.9 25
18:05 1010 29.83 840 24.81 -0 31.9 75 -3.9 25
18:10 1010 29.83 840 24.81 -0.1 31.8 76 -3.9 25
18:15 1010 29.83 839 24.78 -0.1 31.8 76 -3.9 25
18:20 1010 29.83 839 24.78 -0.1 31.8 76 -3.8 25.1
18:25 1010 29.83 839 24.78 -0.3 31.5 77 -3.8 25.2
18:30 1010 29.83 839 24.78 -0.4 31.3 77 -3.9 25
18:35 1010 29.83 839 24.78 -0.5 31.1 77 -4 24.9
18:40 1010 29.83 839 24.78 -0.7 30.8 79 -3.9 24.9
18:45 1010 29.83 839 24.78 -0.8 30.5 79 -4.1 24.6
18:50 1010 29.83 839 24.78 -0.5 31 77 -4.1 24.6
18:55 1010 29.83 839 24.78 -0.5 31.2 77 -4 24.8
19:00 1010 29.83 839 24.78 -1 30.3 78 -4.4 24.1
19:05 1010 29.83 839 24.78 -1.2 29.8 80 -4.3 24.3
19:10 1010 29.83 839 24.78 -0.9 30.4 76 -4.5 23.9
19:15 1010 29.83 839 24.78 -1.4 29.5 80 -4.5 24
19:20 1010 29.83 839 24.78 -1.8 28.8 79 -4.9 23.2
19:25 1010 29.83 839 24.78 -2.2 28 85 -4.4 24.2
19:30 1010 29.83 839 24.78 -1.1 30 78 -4.4 24
19:35 1010 29.83 839 24.78 -1.2 29.9 80 -4.1 24.6
19:40 1010 29.83 839 24.78 -1.5 29.3 80 -4.5 24
19:45 1010 29.83 839 24.78 -1.3 29.6 80 -4.3 24.2
19:50 1010 29.83 839 24.78 -0.9 30.4 80 -4 24.8
19:55 1010 29.83 839 24.78 -0.4 31.2 75 -4.3 24.3
20:00 1010 29.83 839 24.78 -0.2 31.6 76 -4.1 24.7
20:05 1010 29.83 839 24.78 -0.5 31.1 76 -4.2 24.4
20:10 1010 29.83 839 24.78 -0.8 30.6 76 -4.5 23.9
20:15 1010 29.83 839 24.78 -1 30.2 77 -4.6 23.8
20:20 1010 29.83 839 24.78 -1.3 29.6 78 -4.7 23.6
20:25 1010 29.83 839 24.78 -1.3 29.7 76 -5 23
20:30 1010 29.83 839 24.78 -1.3 29.7 77 -4.9 23.2
20:35 1010 29.83 839 24.78 -1.3 29.6 77 -4.8 23.4
20:40 1010 29.83 839 24.78 -1.2 29.9 77 -4.7 23.6
20:45 1010 29.83 839 24.78 -1.2 29.9 77 -4.8 23.4
20:50 1010 29.83 839 24.78 -0.9 30.4 75 -4.8 23.4
20:55 1010 29.83 839 24.78 -0.9 30.4 75 -4.8 23.3
21:00 1010 29.83 839 24.78 -1 30.2 74 -5 23
21:05 1010 29.83 839 24.78 -1.3 29.7 76 -5 22.9
21:10 1010 29.83 839 24.78 -1.6 29.2 78 -5 23.1
21:15 1010 29.83 839 24.78 -1.7 28.9 77 -5.3 22.4
21:20 1010 29.83 839 24.78 -1.2 29.8 75 -5 22.9
21:25 1010 29.83 839 24.78 -1.1 30 75 -5.1 22.9
21:30 1010 29.83 839 24.78 -1 30.1 74 -5.1 22.8
21:35 1010 29.83 839 24.78 -0.8 30.5 73 -5 22.9
21:40 1010 29.83 839 24.78 -0.8 30.5 73 -5.1 22.8
21:45 1010 29.83 839 24.78 -1 30.3 73 -5.1 22.7
21:50 1010 29.83 839 24.78 -0.9 30.3 73 -5.1 22.8
21:55 1010 29.83 839 24.78 -0.9 30.4 74 -5 23
22:00 1010 29.83 839 24.78 -0.4 31.3 72 -4.9 23.2
22:05 1010 29.83 839 24.78 -0.4 31.3 72 -4.9 23.2
22:10 1010 29.83 839 24.78 -0.6 30.8 72 -5 23
22:15 1010 29.83 840 24.81 -1 30.1 74 -5 23
22:20 1010 29.83 840 24.81 -1.6 29.1 77 -5.2 22.7
22:25 1010 29.83 840 24.81 -1.7 28.9 77 -5.3 22.4
22:30 1010 29.83 840 24.81 -2.2 28 78 -5.5 22
22:35 1010 29.83 840 24.81 -2.5 27.5 78 -5.8 21.6
22:40 1010 29.83 840 24.81 -2.6 27.4 80 -5.5 22.1
22:45 1010 29.83 840 24.81 -2.3 27.8 78 -5.6 21.9
22:50 1010 29.83 840 24.81 -2.5 27.5 80 -5.5 22.2
22:55 1011 29.85 840 24.81 -2.5 27.6 80 -5.5 22.2
23:00 1010 29.83 840 24.81 -2.4 27.6 80 -5.5 22.1
23:05 1010 29.83 840 24.81 -2.4 27.6 79 -5.6 22
23:10 1010 29.83 840 24.81 -2.7 27.1 80 -5.8 21.6
23:15 1010 29.83 840 24.81 -2.7 27.2 80 -5.7 21.8
23:20 1010 29.83 840 24.81 -2.4 27.7 78 -5.7 21.8
23:25 1010 29.83 840 24.81 -2.6 27.3 79 -5.7 21.8
23:30 1010 29.83 840 24.81 -2.6 27.3 80 -5.5 22
23:35 1010 29.83 840 24.81 -2.4 27.6 80 -5.4 22.4
23:40 1010 29.83 840 24.81 -2.4 27.8 80 -5.4 22.3
23:45 1010 29.83 840 24.81 -2.6 27.4 81 -5.4 22.2
23:50 1011 29.85 840 24.81 -2.6 27.3 81 -5.4 22.2
23:55 1011 29.85 840 24.81 -2.7 27.2 80 -5.7 21.8
24:00 1011 29.85 840 24.81 -3 26.6 81 -5.8 21.5